Time;durP1;ratioP1;P1;durP2;ratioP2;P2;SDS_P1;SDS_P2;PMS_P1;PMS_P2;Temp;Humidity;BMP_temperature;BMP_pressure;BME280_temperature;BME280_humidity;BME280_pressure;Samples;Min_cycle;Max_cycle;Signal;HPM_P1;HPM_P2
2021/07/21 00:01:41;;;;;;;10.03;7.90;;;19.60;91.50;;;;;;10441772;28;20621;-82
2021/07/21 00:06:44;;;;;;;8.40;7.60;;;19.60;91.90;;;;;;10449948;28;20228;-82
2021/07/21 00:17:16;;;;;;;10.00;9.10;;;19.50;92.60;;;;;;10427850;28;20306;-82
2021/07/21 00:22:20;;;;;;;9.13;8.33;;;19.50;92.90;;;;;;10466112;28;20671;-82
2021/07/21 00:27:23;;;;;;;9.50;8.30;;;19.50;93.20;;;;;;10448210;28;20258;-82
2021/07/21 00:32:25;;;;;;;8.97;8.17;;;19.50;94.20;;;;;;10466551;28;20196;-82
2021/07/21 00:37:29;;;;;;;9.00;8.10;;;19.50;94.10;;;;;;10458163;28;20205;-82
2021/07/21 00:42:31;;;;;;;9.43;8.37;;;19.50;93.90;;;;;;10461162;28;20614;-82
2021/07/21 00:47:33;;;;;;;9.73;8.20;;;19.50;93.20;;;;;;10449158;28;20200;-83
2021/07/21 00:52:38;;;;;;;10.40;8.73;;;19.40;92.60;;;;;;10478963;28;20200;-82
2021/07/21 00:57:41;;;;;;;12.60;8.87;;;19.30;93.10;;;;;;10426343;28;20742;-83
2021/07/21 01:02:47;;;;;;;11.20;9.10;;;19.20;92.70;;;;;;10475046;28;20212;-82
2021/07/21 01:07:51;;;;;;;8.70;7.80;;;19.20;93.10;;;;;;10449849;28;20725;-82
2021/07/21 01:13:02;;;;;;;10.00;9.03;;;19.10;92.20;;;;;;10468424;28;20724;-82
2021/07/21 01:18:10;;;;;;;9.73;8.73;;;19.00;93.00;;;;;;10476035;28;20224;-82
2021/07/21 01:23:28;;;;;;;9.50;8.60;;;18.90;92.80;;;;;;10458953;28;20646;-82
2021/07/21 01:28:33;;;;;;;10.30;8.70;;;18.90;93.30;;;;;;10446485;28;20564;-83
2021/07/21 01:33:38;;;;;;;9.80;8.47;;;18.90;92.70;;;;;;10458722;28;20233;-83
2021/07/21 01:38:46;;;;;;;9.23;8.43;;;18.80;93.70;;;;;;10475098;28;20200;-82
2021/07/21 01:43:55;;;;;;;10.63;8.93;;;18.80;93.70;;;;;;10463285;28;20220;-82
2021/07/21 01:49:01;;;;;;;10.10;9.03;;;18.80;93.60;;;;;;10482780;28;20208;-82
2021/07/21 01:54:10;;;;;;;9.80;8.90;;;18.70;93.90;;;;;;10474981;28;20224;-82
2021/07/21 01:59:23;;;;;;;9.00;8.10;;;18.70;94.00;;;;;;10472440;28;20201;-82
2021/07/21 02:05:17;;;;;;;10.40;9.40;;;18.60;94.40;;;;;;10446219;28;20240;-82
2021/07/21 02:10:21;;;;;;;11.23;9.00;;;18.60;95.00;;;;;;10446127;28;20201;-81
2021/07/21 02:15:34;;;;;;;10.77;9.70;;;18.60;93.80;;;;;;10454266;28;20240;-82
2021/07/21 02:20:41;;;;;;;10.10;9.13;;;18.50;94.50;;;;;;10458445;28;20654;-82
2021/07/21 02:25:47;;;;;;;10.07;9.03;;;18.50;94.80;;;;;;10462678;28;20205;-82
2021/07/21 02:30:57;;;;;;;13.43;10.10;;;18.50;94.30;;;;;;10444792;28;20205;-82
2021/07/21 02:36:00;;;;;;;10.80;9.70;;;18.40;94.60;;;;;;10456526;28;20295;-83
2021/07/21 02:41:04;;;;;;;10.30;9.30;;;18.40;95.00;;;;;;10429632;28;20217;-82
2021/07/21 02:46:10;;;;;;;9.90;8.90;;;18.30;95.40;;;;;;10441827;28;20232;-83
2021/07/21 02:51:23;;;;;;;10.77;9.87;;;18.30;95.90;;;;;;10450201;28;20631;-82
2021/07/21 02:56:31;;;;;;;11.67;10.30;;;18.30;94.80;;;;;;10449712;28;20217;-82
2021/07/21 03:01:39;;;;;;;11.03;9.40;;;18.30;94.80;;;;;;10460001;28;20726;-83
2021/07/21 03:06:44;;;;;;;13.07;10.50;;;18.20;95.60;;;;;;10454685;28;20312;-82
2021/07/21 03:11:53;;;;;;;10.70;9.60;;;18.20;95.50;;;;;;10460821;28;20619;-83
2021/07/21 03:17:02;;;;;;;11.50;9.50;;;18.20;96.20;;;;;;10442563;28;20220;-82
2021/07/21 03:22:13;;;;;;;10.87;9.80;;;18.10;95.70;;;;;;10443157;28;20330;-83
2021/07/21 03:27:29;;;;;;;10.80;9.80;;;18.10;96.10;;;;;;10441640;28;20657;-83
2021/07/21 03:32:55;;;;;;;9.73;8.40;;;18.10;96.70;;;;;;10428926;28;20225;-82
2021/07/21 03:37:58;;;;;;;10.57;9.57;;;18.00;96.60;;;;;;10438568;28;20225;-83
2021/07/21 03:43:02;;;;;;;10.17;9.17;;;18.00;96.40;;;;;;10446507;28;20288;-82
2021/07/21 03:48:15;;;;;;;14.70;10.07;;;17.90;96.50;;;;;;10483523;28;20275;-82
2021/07/21 03:53:41;;;;;;;10.67;9.67;;;17.90;96.30;;;;;;10471010;28;20319;-82
2021/07/21 03:58:47;;;;;;;11.03;9.93;;;17.80;96.80;;;;;;10467879;28;20217;-82
2021/07/21 04:04:01;;;;;;;11.03;9.37;;;17.80;97.40;;;;;;10446854;28;20763;-84
2021/07/21 04:09:11;;;;;;;12.67;9.70;;;17.80;97.90;;;;;;10472410;28;20829;-81
2021/07/21 04:14:16;;;;;;;10.27;9.37;;;17.80;97.60;;;;;;10476782;28;20618;-82
2021/07/21 04:19:40;;;;;;;10.17;9.20;;;17.80;97.10;;;;;;10465879;28;20665;-82
2021/07/21 04:24:45;;;;;;;11.10;10.00;;;17.80;97.10;;;;;;10469180;28;20700;-83
2021/07/21 04:29:50;;;;;;;11.37;10.27;;;17.70;97.40;;;;;;10495070;28;20200;-81
2021/07/21 04:34:54;;;;;;;10.60;9.60;;;17.70;98.30;;;;;;10447642;28;20213;-83
2021/07/21 04:39:59;;;;;;;10.03;9.13;;;17.70;97.80;;;;;;10442220;28;20289;-82
2021/07/21 04:45:22;;;;;;;10.60;9.50;;;17.80;98.60;;;;;;10440121;28;20272;-83
2021/07/21 04:50:26;;;;;;;12.50;10.70;;;17.80;98.50;;;;;;10483167;28;20299;-82
2021/07/21 04:55:30;;;;;;;11.80;10.60;;;17.90;98.40;;;;;;10488263;28;20681;-82
2021/07/21 05:00:35;;;;;;;12.33;9.70;;;17.90;98.70;;;;;;10464427;28;20189;-82
2021/07/21 05:05:50;;;;;;;11.20;10.10;;;18.00;98.90;;;;;;10472294;28;20220;-82
2021/07/21 05:10:56;;;;;;;11.60;10.40;;;18.00;99.10;;;;;;10501682;28;20189;-82
2021/07/21 05:15:59;;;;;;;11.27;10.10;;;18.00;98.50;;;;;;10478909;28;20224;-82
2021/07/21 05:21:04;;;;;;;13.80;11.30;;;18.10;99.20;;;;;;10473377;28;20196;-83
2021/07/21 05:26:09;;;;;;;11.30;10.07;;;18.20;99.30;;;;;;10478872;28;20220;-82
2021/07/21 05:31:15;;;;;;;12.20;11.10;;;18.20;98.10;;;;;;10485634;28;20232;-81
2021/07/21 05:36:38;;;;;;;12.70;10.80;;;18.30;99.70;;;;;;10502983;28;20692;-82
2021/07/21 05:41:44;;;;;;;12.40;10.90;;;18.30;98.80;;;;;;10478384;28;20212;-84
2021/07/21 05:46:46;;;;;;;13.83;10.50;;;18.50;99.70;;;;;;10472279;28;20836;-82
2021/07/21 05:51:50;;;;;;;11.73;10.37;;;18.60;99.30;;;;;;10491463;28;20192;-82
2021/07/21 05:56:58;;;;;;;14.07;11.70;;;18.70;99.20;;;;;;10469685;28;20319;-82
2021/07/21 06:02:08;;;;;;;11.23;9.80;;;18.80;99.00;;;;;;10498119;28;20209;-83
2021/07/21 06:07:14;;;;;;;11.87;10.57;;;18.80;98.70;;;;;;10486328;28;20222;-82
2021/07/21 06:12:42;;;;;;;12.20;10.93;;;18.90;97.50;;;;;;10500855;28;20233;-82
2021/07/21 06:17:45;;;;;;;12.77;11.50;;;18.90;98.00;;;;;;10466747;28;20284;-82
2021/07/21 06:22:49;;;;;;;12.50;11.20;;;19.00;98.80;;;;;;10482875;22;20251;-79
2021/07/21 06:28:04;;;;;;;12.57;11.37;;;19.10;98.80;;;;;;10498119;28;20313;-78
2021/07/21 06:33:10;;;;;;;12.03;10.87;;;19.20;97.90;;;;;;10479772;28;20251;-78
2021/07/21 06:38:16;;;;;;;12.23;10.97;;;19.30;97.70;;;;;;10438555;28;20286;-78
2021/07/21 06:43:24;;;;;;;14.73;11.93;;;19.50;98.80;;;;;;10455120;28;20267;-77
2021/07/21 06:48:39;;;;;;;12.00;10.57;;;19.60;97.40;;;;;;10452473;28;20690;-78
2021/07/21 06:53:43;;;;;;;12.13;10.93;;;19.80;97.90;;;;;;10455033;28;20228;-78
2021/07/21 06:58:50;;;;;;;11.73;10.57;;;20.10;97.10;;;;;;10455897;28;20302;-79
2021/07/21 07:03:54;;;;;;;12.93;11.10;;;20.20;95.90;;;;;;10453959;28;20231;-78
2021/07/21 07:09:16;;;;;;;13.47;10.70;;;20.50;95.90;;;;;;10449774;28;20699;-79
2021/07/21 07:14:37;;;;;;;12.30;10.20;;;20.80;95.80;;;;;;10455149;28;20685;-79
2021/07/21 07:19:39;;;;;;;13.07;11.67;;;21.00;94.70;;;;;;10448275;28;20244;-79
2021/07/21 07:24:43;;;;;;;10.27;9.37;;;21.20;94.60;;;;;;10438900;28;20298;-78
2021/07/21 07:29:45;;;;;;;12.10;10.90;;;21.50;94.40;;;;;;10457730;28;20276;-78
2021/07/21 07:34:47;;;;;;;10.97;9.97;;;21.70;93.00;;;;;;10455038;28;20235;-78
2021/07/21 07:39:50;;;;;;;13.43;9.37;;;21.90;92.50;;;;;;10453598;28;20649;-78
2021/07/21 07:44:53;;;;;;;10.30;9.37;;;22.20;91.70;;;;;;10449832;28;20225;-79
2021/07/21 07:50:04;;;;;;;12.00;10.57;;;22.50;92.30;;;;;;10447099;28;20205;-78
2021/07/21 07:55:09;;;;;;;12.57;10.00;;;22.70;90.50;;;;;;10429279;28;20275;-78
2021/07/21 08:00:13;;;;;;;11.03;9.80;;;22.90;90.80;;;;;;10453002;28;20284;-79
2021/07/21 08:05:18;;;;;;;11.27;10.07;;;23.10;90.70;;;;;;10453179;28;20296;-79
2021/07/21 08:10:21;;;;;;;12.83;10.43;;;23.50;90.30;;;;;;10436016;28;20211;-79
2021/07/21 08:15:24;;;;;;;13.03;9.40;;;24.00;89.20;;;;;;10453471;28;20221;-78
2021/07/21 08:20:26;;;;;;;15.60;10.40;;;24.60;88.30;;;;;;10439899;28;20205;-78
2021/07/21 08:25:29;;;;;;;11.20;9.17;;;25.20;84.60;;;;;;10454556;28;20279;-78
2021/07/21 08:30:34;;;;;;;13.20;10.33;;;25.80;83.50;;;;;;10452955;28;20201;-79
2021/07/21 08:35:36;;;;;;;10.77;9.77;;;26.20;81.40;;;;;;10454208;28;20240;-79
2021/07/21 08:40:41;;;;;;;14.20;8.53;;;26.70;81.90;;;;;;10453473;28;20224;-79
2021/07/21 08:45:43;;;;;;;9.83;8.93;;;27.10;80.60;;;;;;10438750;28;20255;-79
2021/07/21 08:50:47;;;;;;;8.97;8.17;;;27.40;76.70;;;;;;10436545;28;20212;-80
2021/07/21 08:55:51;;;;;;;9.03;8.13;;;27.70;75.60;;;;;;10454500;28;20243;-80
2021/07/21 09:00:54;;;;;;;9.47;8.57;;;27.90;76.80;;;;;;10454359;28;20285;-79
2021/07/21 09:05:56;;;;;;;8.90;7.70;;;28.20;74.60;;;;;;10455356;28;20229;-79
2021/07/21 09:11:00;;;;;;;9.20;8.40;;;28.40;72.70;;;;;;10444055;28;20588;-80
2021/07/21 09:16:04;;;;;;;9.83;8.90;;;28.60;71.50;;;;;;10455759;28;21001;-79
2021/07/21 09:21:08;;;;;;;9.83;8.93;;;28.80;72.80;;;;;;10444712;28;20245;-81
2021/07/21 09:26:18;;;;;;;9.17;8.27;;;28.80;71.10;;;;;;10447416;28;20198;-81
2021/07/21 09:31:30;;;;;;;9.07;8.27;;;28.90;71.40;;;;;;10445631;28;20503;-81
2021/07/21 09:36:32;;;;;;;9.17;8.27;;;29.20;68.40;;;;;;10448036;28;20252;-79
2021/07/21 09:41:35;;;;;;;13.20;9.30;;;29.50;68.00;;;;;;10455270;28;20236;-79
2021/07/21 09:46:38;;;;;;;8.00;7.30;;;29.80;68.50;;;;;;10455954;28;20217;-79
2021/07/21 09:51:40;;;;;;;9.60;8.60;;;30.10;66.50;;;;;;10443886;28;20788;-81
2021/07/21 09:56:46;;;;;;;9.80;8.90;;;30.50;62.20;;;;;;10451402;28;20238;-79
2021/07/21 10:01:48;;;;;;;8.70;8.00;;;31.10;61.50;;;;;;10440562;28;20635;-79
2021/07/21 10:06:51;;;;;;;8.30;7.50;;;31.70;60.90;;;;;;10439031;28;20206;-79
2021/07/21 10:11:56;;;;;;;7.80;7.00;;;32.50;59.00;;;;;;10434230;28;20650;-79
2021/07/21 10:16:58;;;;;;;8.73;7.93;;;33.80;58.10;;;;;;10437004;28;20209;-81
2021/07/21 10:22:01;;;;;;;8.67;7.90;;;35.20;54.70;;;;;;10440323;28;20228;-80
2021/07/21 10:27:05;;;;;;;17.87;16.17;;;36.30;52.60;;;;;;10435727;28;20220;-79
2021/07/21 10:32:10;;;;;;;10.27;9.13;;;35.40;51.40;;;;;;10439361;28;20225;-80
2021/07/21 10:37:12;;;;;;;19.77;17.00;;;33.60;52.60;;;;;;10436874;28;20213;-80
2021/07/21 10:42:19;;;;;;;13.27;11.30;;;31.90;55.70;;;;;;10438344;28;20711;-80
2021/07/21 10:47:24;;;;;;;10.20;9.20;;;30.60;58.30;;;;;;10435558;28;20239;-80
2021/07/21 10:52:54;;;;;;;12.90;11.53;;;29.60;59.70;;;;;;10436029;28;20749;-80
2021/07/21 11:03:31;;;;;;;13.67;10.03;;;28.10;63.70;;;;;;10436237;28;20562;-81
2021/07/21 11:08:33;;;;;;;11.73;10.53;;;27.60;63.60;;;;;;10444706;28;20263;-81
2021/07/21 11:13:42;;;;;;;12.00;10.80;;;27.30;67.00;;;;;;10447291;28;20263;-80
2021/07/21 11:18:44;;;;;;;10.53;9.53;;;27.00;66.50;;;;;;10444898;28;20221;-81
2021/07/21 11:24:02;;;;;;;12.17;10.53;;;26.70;68.20;;;;;;10447855;28;20221;-79
2021/07/21 11:29:37;;;;;;;10.37;9.37;;;26.50;65.00;;;;;;10446160;28;20275;-79
2021/07/21 11:34:42;;;;;;;9.80;8.93;;;26.20;66.60;;;;;;10440024;28;20212;-80
2021/07/21 11:39:47;;;;;;;11.80;9.27;;;26.00;70.90;;;;;;10428170;28;20221;-80
2021/07/21 11:44:50;;;;;;;14.53;11.20;;;25.80;67.80;;;;;;10446909;28;20242;-78
2021/07/21 11:49:54;;;;;;;10.33;9.30;;;25.70;71.20;;;;;;10442017;28;20186;-81
2021/07/21 11:54:56;;;;;;;10.80;9.70;;;25.70;72.90;;;;;;10448698;28;20221;-80
2021/07/21 12:00:11;;;;;;;11.73;10.63;;;25.70;68.10;;;;;;10438420;28;20585;-78
2021/07/21 12:05:15;;;;;;;12.93;11.70;;;25.70;66.90;;;;;;10439513;28;20586;-78
2021/07/21 12:10:18;;;;;;;11.20;10.10;;;25.60;71.00;;;;;;10443232;28;20225;-79
2021/07/21 12:15:23;;;;;;;11.50;10.40;;;25.50;69.40;;;;;;10440756;28;20220;-79
2021/07/21 12:20:32;;;;;;;12.00;10.90;;;25.50;70.50;;;;;;10439919;28;20267;-78
2021/07/21 12:25:34;;;;;;;12.90;11.13;;;25.50;71.10;;;;;;10492085;22;20224;-82
2021/07/21 12:30:37;;;;;;;19.83;10.90;;;25.50;69.30;;;;;;10477046;28;20470;-82
2021/07/21 12:35:40;;;;;;;11.60;10.50;;;25.40;71.60;;;;;;10452598;28;20614;-83
2021/07/21 12:40:43;;;;;;;11.63;10.53;;;25.50;71.10;;;;;;10464778;28;20696;-82
2021/07/21 12:45:45;;;;;;;11.47;10.37;;;25.60;72.20;;;;;;10456760;28;20408;-83
2021/07/21 12:50:49;;;;;;;9.57;8.57;;;25.60;71.70;;;;;;10463841;28;20197;-83
2021/07/21 12:55:52;;;;;;;11.83;10.53;;;25.50;72.60;;;;;;10443436;28;20221;-82
2021/07/21 13:00:56;;;;;;;13.20;10.60;;;25.50;72.90;;;;;;10452875;28;20198;-82
2021/07/21 13:06:00;;;;;;;12.30;11.00;;;25.50;74.50;;;;;;10459436;28;20229;-82
2021/07/21 13:11:05;;;;;;;9.40;8.60;;;25.40;72.00;;;;;;10442040;28;20217;-82
2021/07/21 13:16:09;;;;;;;10.40;9.30;;;25.40;78.70;;;;;;10427979;28;20577;-82
2021/07/21 13:21:23;;;;;;;10.63;9.60;;;25.30;73.90;;;;;;10445310;28;20288;-81
2021/07/21 13:26:26;;;;;;;12.17;10.30;;;25.30;72.70;;;;;;10469555;28;20256;-84
2021/07/21 13:31:33;;;;;;;10.97;9.80;;;25.30;72.90;;;;;;10443387;28;20225;-82
2021/07/21 13:36:42;;;;;;;9.93;9.03;;;25.40;74.00;;;;;;10438144;28;20304;-82
2021/07/21 13:41:51;;;;;;;10.90;9.80;;;25.40;73.40;;;;;;10454484;28;20235;-82
2021/07/21 13:46:55;;;;;;;11.50;10.40;;;25.40;70.90;;;;;;10452154;28;20201;-83
2021/07/21 13:52:00;;;;;;;11.20;9.40;;;25.40;70.50;;;;;;10469222;28;20275;-84
2021/07/21 13:57:07;;;;;;;11.27;10.03;;;25.30;71.00;;;;;;10461290;28;20213;-83
2021/07/21 14:02:11;;;;;;;10.17;9.27;;;25.30;71.70;;;;;;10460738;28;20917;-83
2021/07/21 14:07:14;;;;;;;10.17;9.03;;;25.30;72.40;;;;;;10430064;28;20206;-82
2021/07/21 14:12:16;;;;;;;9.97;8.97;;;25.30;71.50;;;;;;10447696;28;20274;-83
2021/07/21 14:17:21;;;;;;;10.83;9.23;;;25.30;72.30;;;;;;10450607;28;20249;-83
2021/07/21 14:22:29;;;;;;;11.30;8.57;;;25.40;69.30;;;;;;10475835;28;20232;-82
2021/07/21 14:27:31;;;;;;;9.57;8.67;;;25.30;69.50;;;;;;10454699;28;20235;-82
2021/07/21 14:32:33;;;;;;;9.67;8.50;;;25.30;70.10;;;;;;10464874;28;20212;-82
2021/07/21 14:37:36;;;;;;;12.10;10.07;;;25.30;69.10;;;;;;10467531;28;20216;-83
2021/07/21 14:42:38;;;;;;;9.23;8.43;;;25.30;69.00;;;;;;10472192;28;20239;-83
2021/07/21 14:47:40;;;;;;;11.30;9.37;;;25.30;66.50;;;;;;10450033;28;20202;-82
2021/07/21 14:52:44;;;;;;;9.37;8.50;;;25.30;69.80;;;;;;10435781;28;20267;-82
2021/07/21 14:57:46;;;;;;;9.77;8.40;;;25.20;71.20;;;;;;10449091;28;20212;-82
2021/07/21 15:02:48;;;;;;;8.60;7.90;;;25.10;68.00;;;;;;10459447;28;20229;-82
2021/07/21 15:07:56;;;;;;;10.23;8.57;;;25.20;68.40;;;;;;10456959;28;20189;-82
2021/07/21 15:12:59;;;;;;;10.47;7.53;;;25.20;70.60;;;;;;10459540;28;20252;-82
2021/07/21 15:18:01;;;;;;;8.90;8.10;;;25.20;66.80;;;;;;10422947;28;20221;-82
2021/07/21 15:23:05;;;;;;;8.90;8.10;;;25.20;65.40;;;;;;10451952;28;20224;-83
2021/07/21 15:28:07;;;;;;;10.40;8.63;;;25.20;64.80;;;;;;10444553;28;20197;-82
2021/07/21 15:33:09;;;;;;;8.77;7.97;;;25.20;66.10;;;;;;10450612;28;20279;-82
2021/07/21 15:38:12;;;;;;;8.10;7.00;;;25.10;64.10;;;;;;10445691;28;20296;-82
2021/07/21 15:43:14;;;;;;;8.60;7.90;;;25.20;64.10;;;;;;10454575;28;20588;-82
2021/07/21 15:48:17;;;;;;;10.37;7.80;;;25.20;65.20;;;;;;10452240;28;20698;-82
2021/07/21 15:53:20;;;;;;;7.80;7.00;;;25.20;67.00;;;;;;10435193;28;20687;-81
2021/07/21 15:58:22;;;;;;;7.23;6.57;;;25.20;67.60;;;;;;10440636;28;20228;-83
2021/07/21 16:03:24;;;;;;;8.27;7.47;;;25.20;63.90;;;;;;10461596;28;20245;-82
2021/07/21 16:08:28;;;;;;;7.40;6.70;;;25.20;66.20;;;;;;10475015;28;20232;-82
2021/07/21 16:13:30;;;;;;;7.43;6.60;;;25.10;63.60;;;;;;10438083;28;20233;-83
2021/07/21 16:18:33;;;;;;;7.87;6.50;;;25.10;63.90;;;;;;10482055;28;20295;-82
2021/07/21 16:23:38;;;;;;;7.33;6.73;;;25.10;63.80;;;;;;10444550;28;20260;-82
2021/07/21 16:28:41;;;;;;;7.53;6.90;;;25.10;63.10;;;;;;10444297;28;20198;-83
2021/07/21 16:33:43;;;;;;;7.60;6.90;;;25.10;67.20;;;;;;10468647;28;20228;-82
2021/07/21 16:38:46;;;;;;;6.83;6.20;;;25.00;61.80;;;;;;10463537;28;20237;-83
2021/07/21 16:43:48;;;;;;;7.63;6.93;;;25.00;62.50;;;;;;10489469;28;20255;-83
2021/07/21 16:48:50;;;;;;;7.23;6.63;;;25.00;64.20;;;;;;10471824;28;20269;-83
2021/07/21 16:53:54;;;;;;;6.50;5.90;;;25.00;62.90;;;;;;10490235;28;20225;-83
2021/07/21 16:58:57;;;;;;;7.53;6.50;;;24.90;66.80;;;;;;10467846;28;20227;-82
2021/07/21 17:03:59;;;;;;;7.20;6.50;;;24.90;61.80;;;;;;10487471;28;20673;-82
2021/07/21 17:09:02;;;;;;;8.30;6.43;;;24.80;65.10;;;;;;10486895;28;20197;-82
2021/07/21 17:14:05;;;;;;;7.60;6.90;;;24.80;65.20;;;;;;10466161;28;20230;-82
2021/07/21 17:19:08;;;;;;;7.80;7.00;;;24.80;67.30;;;;;;10453713;28;20710;-82
2021/07/21 17:24:11;;;;;;;8.43;6.70;;;24.80;64.40;;;;;;10480211;28;20229;-82
2021/07/21 17:29:14;;;;;;;7.03;6.33;;;24.70;66.60;;;;;;10480724;28;20213;-83
2021/07/21 17:34:16;;;;;;;7.00;6.37;;;24.70;63.40;;;;;;10477075;28;20217;-83
2021/07/21 17:39:19;;;;;;;7.80;6.73;;;24.60;62.80;;;;;;10477593;28;20280;-83
2021/07/21 17:44:22;;;;;;;6.47;5.90;;;24.60;62.00;;;;;;10491519;28;20231;-83
2021/07/21 17:49:24;;;;;;;6.40;5.83;;;24.60;70.00;;;;;;10454353;28;20634;-83
2021/07/21 17:54:28;;;;;;;6.30;5.80;;;24.50;64.20;;;;;;10443967;28;20226;-83
2021/07/21 17:59:30;;;;;;;6.60;6.00;;;24.50;70.40;;;;;;10447204;28;20240;-82
2021/07/21 18:04:34;;;;;;;7.57;6.87;;;24.40;68.00;;;;;;10454501;28;20221;-82
2021/07/21 18:09:38;;;;;;;7.03;6.33;;;24.30;65.10;;;;;;10439884;28;20267;-82
2021/07/21 18:14:40;;;;;;;7.97;6.73;;;24.30;65.70;;;;;;10455979;28;20260;-82
2021/07/21 18:19:42;;;;;;;6.97;5.57;;;24.20;66.40;;;;;;10428787;28;20624;-83
2021/07/21 18:24:45;;;;;;;6.53;6.03;;;24.20;67.00;;;;;;10454260;28;20241;-82
2021/07/21 18:29:47;;;;;;;7.57;6.83;;;24.20;67.10;;;;;;10427897;28;20193;-82
2021/07/21 18:34:51;;;;;;;6.10;5.60;;;24.10;70.00;;;;;;10438831;28;20272;-83
2021/07/21 18:39:58;;;;;;;5.80;5.37;;;24.00;76.90;;;;;;10427752;28;20228;-83
2021/07/21 18:45:03;;;;;;;7.20;6.20;;;23.90;74.30;;;;;;10454235;28;20634;-84
2021/07/21 18:50:09;;;;;;;6.47;5.93;;;23.90;72.50;;;;;;10432251;28;20197;-84
2021/07/21 18:55:19;;;;;;;8.00;6.33;;;23.80;73.10;;;;;;10416614;28;20593;-83
2021/07/21 19:06:00;;;;;;;8.23;6.97;;;23.80;73.90;;;;;;10413662;28;20309;-84
2021/07/21 19:11:07;;;;;;;6.90;5.90;;;23.70;75.00;;;;;;10424167;28;20312;-82
2021/07/21 19:16:09;;;;;;;10.60;6.73;;;23.50;75.20;;;;;;10444813;28;20209;-81
2021/07/21 19:21:12;;;;;;;7.27;6.50;;;23.40;76.00;;;;;;10401929;28;20309;-82
2021/07/21 19:26:15;;;;;;;9.20;7.27;;;23.20;77.40;;;;;;10443691;28;20205;-81
2021/07/21 19:31:18;;;;;;;13.20;7.17;;;23.00;77.20;;;;;;10447167;28;20615;-82
2021/07/21 19:36:20;;;;;;;8.70;7.87;;;22.80;77.10;;;;;;10430582;28;20239;-82
2021/07/21 19:41:23;;;;;;;8.27;7.47;;;22.70;79.40;;;;;;10423662;28;20222;-81
2021/07/21 19:46:25;;;;;;;6.87;6.27;;;22.60;77.90;;;;;;10446445;28;20210;-82
2021/07/21 19:51:28;;;;;;;8.17;7.37;;;22.50;78.80;;;;;;10418560;28;20221;-81
2021/07/21 19:56:31;;;;;;;6.70;6.10;;;22.40;78.90;;;;;;10452822;28;20605;-82
2021/07/21 20:01:33;;;;;;;8.87;7.00;;;22.30;78.80;;;;;;10420877;28;20233;-82
2021/07/21 20:06:36;;;;;;;8.37;6.70;;;22.30;79.10;;;;;;10434333;28;20255;-82
2021/07/21 20:11:39;;;;;;;7.57;6.73;;;22.20;79.80;;;;;;10451458;28;20221;-82
2021/07/21 20:16:41;;;;;;;10.47;6.10;;;22.20;81.90;;;;;;10453228;28;20211;-81
2021/07/21 20:21:43;;;;;;;7.90;7.20;;;22.10;81.00;;;;;;10476631;28;20248;-81
2021/07/21 20:26:47;;;;;;;8.77;6.97;;;22.00;81.60;;;;;;10407378;28;20194;-82
2021/07/21 20:31:50;;;;;;;8.40;7.70;;;22.00;82.10;;;;;;10434203;28;20300;-82
2021/07/21 20:36:52;;;;;;;8.33;7.23;;;22.00;81.70;;;;;;10457069;28;20209;-83
2021/07/21 20:41:57;;;;;;;9.03;6.87;;;21.90;82.30;;;;;;10466674;28;20227;-82
2021/07/21 20:46:59;;;;;;;10.63;6.33;;;21.90;81.80;;;;;;10447337;28;20238;-82
2021/07/21 20:52:01;;;;;;;7.83;6.77;;;22.00;83.40;;;;;;10430787;28;20295;-82
2021/07/21 20:57:05;;;;;;;7.20;6.50;;;22.00;83.00;;;;;;10427355;28;20197;-82
2021/07/21 21:02:08;;;;;;;14.63;7.10;;;21.90;83.00;;;;;;10442758;28;20228;-82
2021/07/21 21:07:10;;;;;;;6.80;6.23;;;21.90;83.50;;;;;;10419796;28;20607;-82
2021/07/21 21:12:14;;;;;;;7.50;6.77;;;21.80;82.80;;;;;;10436247;28;20217;-82
2021/07/21 21:17:16;;;;;;;7.30;6.60;;;21.80;84.30;;;;;;10479429;28;20192;-82
2021/07/21 21:22:18;;;;;;;7.30;6.10;;;21.70;83.50;;;;;;10460841;28;20216;-82
2021/07/21 21:27:21;;;;;;;6.90;6.23;;;21.70;85.00;;;;;;10427816;28;21166;-82
2021/07/21 21:32:24;;;;;;;6.83;6.13;;;21.80;83.30;;;;;;10451934;28;20213;-82
2021/07/21 21:37:26;;;;;;;7.37;6.67;;;21.70;84.40;;;;;;10428948;28;20574;-81
2021/07/21 21:42:29;;;;;;;7.37;6.60;;;21.70;83.10;;;;;;10482029;28;20300;-81
2021/07/21 21:47:31;;;;;;;7.73;6.80;;;21.70;84.60;;;;;;10442531;28;20255;-82
2021/07/21 21:52:34;;;;;;;7.47;6.63;;;21.60;84.90;;;;;;10451841;28;20272;-82
2021/07/21 21:57:38;;;;;;;7.47;6.77;;;21.60;83.10;;;;;;10446867;28;20208;-82
2021/07/21 22:02:40;;;;;;;7.20;6.60;;;21.50;84.70;;;;;;10452465;28;20713;-81
2021/07/21 22:07:42;;;;;;;10.30;6.50;;;21.50;84.70;;;;;;10458135;28;20209;-81
2021/07/21 22:12:46;;;;;;;7.70;6.87;;;21.50;82.90;;;;;;10451241;28;20307;-81
2021/07/21 22:17:49;;;;;;;7.83;7.10;;;21.40;84.20;;;;;;10432031;28;20197;-82
2021/07/21 22:29:12;;;;;;;9.20;6.57;;;21.30;85.50;;;;;;10435023;28;20557;-81
2021/07/21 22:34:16;;;;;;;7.67;7.07;;;21.20;85.70;;;;;;10460792;28;20243;-82
2021/07/21 22:39:19;;;;;;;9.60;6.63;;;21.20;85.80;;;;;;10455560;28;20708;-82
2021/07/21 22:44:26;;;;;;;7.10;6.40;;;21.10;84.70;;;;;;10416089;28;20252;-80
2021/07/21 22:49:28;;;;;;;7.43;6.73;;;21.00;85.90;;;;;;10462243;28;20194;-81
2021/07/21 22:54:30;;;;;;;9.37;6.40;;;21.10;84.50;;;;;;10441293;28;20224;-82
2021/07/21 22:59:40;;;;;;;9.53;6.80;;;21.00;85.50;;;;;;10458901;28;20212;-82
2021/07/21 23:05:20;;;;;;;7.13;6.20;;;21.00;88.30;;;;;;10426347;28;20221;-81
2021/07/21 23:10:59;;;;;;;7.07;6.30;;;20.90;86.10;;;;;;10440855;28;20197;-81
2021/07/21 23:16:04;;;;;;;7.03;6.40;;;20.90;87.20;;;;;;10438958;28;20236;-82
2021/07/21 23:21:09;;;;;;;7.33;6.73;;;20.80;88.60;;;;;;10452822;28;20316;-81
2021/07/21 23:26:15;;;;;;;8.17;7.37;;;20.70;88.40;;;;;;10425799;28;20263;-82
2021/07/21 23:31:19;;;;;;;8.50;7.70;;;20.70;88.90;;;;;;10413955;28;20595;-82
2021/07/21 23:36:21;;;;;;;8.20;7.40;;;20.60;88.80;;;;;;10432337;28;20196;-81
2021/07/21 23:41:23;;;;;;;7.57;6.77;;;20.60;89.30;;;;;;10454856;28;20313;-82
2021/07/21 23:46:27;;;;;;;7.40;6.80;;;20.60;90.40;;;;;;10468849;28;20201;-81
2021/07/21 23:51:29;;;;;;;7.03;6.50;;;20.60;90.10;;;;;;10466872;28;20704;-81
2021/07/21 23:56:31;;;;;;;7.30;6.60;;;20.60;90.00;;;;;;10454215;28;20199;-81
